Time;durP1;ratioP1;P1;durP2;ratioP2;P2;SDS_P1;SDS_P2;PMS_P1;PMS_P2;Temp;Humidity;BMP_temperature;BMP_pressure;BME280_temperature;BME280_humidity;BME280_pressure;Samples;Min_cycle;Max_cycle;Signal;HPM_P1;HPM_P2
2021/03/18 00:02:10;;;;;;;10.05;8.35;;;;;;;0.34;100.00;101970.84;10420311;28;20045;-73
2021/03/18 00:07:11;;;;;;;10.15;6.22;;;;;;;0.36;100.00;101982.13;10419375;28;20459;-73
2021/03/18 00:12:12;;;;;;;10.90;6.95;;;;;;;0.31;100.00;101966.50;10438236;28;20056;-73
2021/03/18 00:17:14;;;;;;;11.88;8.15;;;;;;;0.34;100.00;101966.53;10459556;28;20450;-72
2021/03/18 00:22:15;;;;;;;10.07;7.15;;;;;;;0.28;100.00;101956.06;10460754;28;20049;-73
2021/03/18 00:27:16;;;;;;;9.65;6.95;;;;;;;0.36;100.00;101964.00;10459323;28;20048;-73
2021/03/18 00:32:18;;;;;;;7.82;6.30;;;;;;;0.36;100.00;101982.13;10460781;28;20044;-73
2021/03/18 00:37:19;;;;;;;12.93;6.25;;;;;;;0.30;100.00;101987.22;10429921;28;20034;-73
2021/03/18 00:42:21;;;;;;;9.90;6.35;;;;;;;0.29;100.00;101988.03;10418113;28;20072;-73
2021/03/18 00:47:23;;;;;;;10.68;6.75;;;;;;;0.30;100.00;101993.28;10417624;28;20080;-73
2021/03/18 00:52:24;;;;;;;10.00;6.90;;;;;;;0.30;100.00;102003.63;10418940;28;20099;-73
2021/03/18 00:57:26;;;;;;;9.05;5.93;;;;;;;0.17;100.00;101988.66;10433561;28;20041;-73
2021/03/18 01:02:27;;;;;;;10.80;6.13;;;;;;;0.11;100.00;101996.31;10417797;28;20148;-73
2021/03/18 01:07:29;;;;;;;10.52;6.65;;;;;;;0.03;100.00;101997.88;10437265;28;20047;-73
2021/03/18 01:12:31;;;;;;;8.98;5.60;;;;;;;0.05;100.00;102023.81;10459594;28;20079;-73
2021/03/18 01:17:32;;;;;;;9.95;6.28;;;;;;;0.04;100.00;102038.50;10457459;28;20048;-73
2021/03/18 01:22:35;;;;;;;9.77;6.35;;;;;;;0.01;100.00;102033.22;10458372;28;20041;-73
2021/03/18 01:27:40;;;;;;;11.00;7.18;;;;;;;0.10;100.00;102028.25;10457724;28;20045;-73
2021/03/18 01:32:42;;;;;;;9.10;6.43;;;;;;;0.12;100.00;102031.75;10458776;28;20044;-73
2021/03/18 01:37:44;;;;;;;10.07;7.18;;;;;;;0.21;100.00;102044.03;10458649;28;20094;-73
2021/03/18 01:42:45;;;;;;;9.15;7.90;;;;;;;0.24;100.00;102049.28;10458048;28;20045;-73
2021/03/18 01:47:49;;;;;;;8.80;7.35;;;;;;;0.29;100.00;102045.06;10456751;28;20064;-73
2021/03/18 01:52:52;;;;;;;9.23;7.17;;;;;;;0.29;100.00;102042.47;10458033;28;20124;-73
2021/03/18 01:57:54;;;;;;;11.82;8.10;;;;;;;0.29;100.00;102034.69;10457100;28;20045;-73
2021/03/18 02:02:57;;;;;;;10.73;7.55;;;;;;;0.38;100.00;102038.34;10458416;28;20201;-72
2021/03/18 02:08:00;;;;;;;12.13;7.25;;;;;;;0.36;100.00;102033.97;10457910;28;20095;-72
2021/03/18 02:13:03;;;;;;;11.90;7.93;;;;;;;0.33;100.00;102015.78;10430928;28;20057;-73
2021/03/18 02:18:17;;;;;;;10.10;8.10;;;;;;;0.31;100.00;102013.16;10431665;28;20046;-73
2021/03/18 02:23:40;;;;;;;11.90;7.63;;;;;;;0.32;100.00;102012.31;10416703;28;20049;-73
2021/03/18 02:29:19;;;;;;;11.63;7.28;;;;;;;0.32;100.00;102009.72;10417175;28;20045;-73
2021/03/18 02:35:04;;;;;;;9.73;7.78;;;;;;;0.35;100.00;102016.66;10424592;28;20049;-73
2021/03/18 02:40:13;;;;;;;10.40;7.57;;;;;;;0.35;100.00;102007.19;10400629;28;20050;-73
2021/03/18 02:45:15;;;;;;;13.48;11.45;;;;;;;0.44;100.00;102022.03;10407648;28;20048;-73
2021/03/18 02:50:18;;;;;;;11.95;9.50;;;;;;;0.51;100.00;102012.66;10438909;28;20046;-73
2021/03/18 02:55:22;;;;;;;10.52;9.43;;;;;;;0.60;100.00;102018.91;10422747;28;20462;-73
2021/03/18 03:00:24;;;;;;;12.98;9.68;;;;;;;0.58;100.00;101996.41;10423941;28;20053;-72
2021/03/18 03:05:25;;;;;;;14.65;10.05;;;;;;;0.60;100.00;101999.88;10422454;28;20045;-72
2021/03/18 03:10:29;;;;;;;11.02;8.52;;;;;;;0.53;100.00;101978.16;10422036;28;20478;-73
2021/03/18 03:15:34;;;;;;;9.90;8.52;;;;;;;0.53;100.00;101985.03;10421036;28;20056;-73
2021/03/18 03:20:36;;;;;;;9.60;7.23;;;;;;;0.46;100.00;101983.19;10421949;28;20045;-73
2021/03/18 03:25:38;;;;;;;11.63;8.90;;;;;;;0.37;100.00;101976.97;10421664;28;20284;-73
2021/03/18 03:30:40;;;;;;;12.57;8.73;;;;;;;0.29;100.00;101985.47;10422214;28;20053;-73
2021/03/18 03:35:41;;;;;;;13.55;9.63;;;;;;;0.35;100.00;101990.75;10441410;28;20050;-73
2021/03/18 03:40:42;;;;;;;10.27;7.82;;;;;;;0.20;100.00;101982.69;10439970;28;20057;-73
2021/03/18 03:45:45;;;;;;;15.38;11.27;;;;;;;0.13;100.00;101970.44;10420267;28;20065;-73
2021/03/18 03:50:47;;;;;;;13.73;10.90;;;;;;;0.11;100.00;101969.53;10420353;28;20038;-73
2021/03/18 03:56:09;;;;;;;12.15;9.25;;;;;;;0.08;100.00;101977.25;10420837;28;20042;-72
2021/03/18 04:01:40;;;;;;;14.00;10.48;;;;;;;0.08;100.00;101979.84;10420517;28;20055;-73
2021/03/18 04:07:01;;;;;;;14.35;8.68;;;;;;;0.22;100.00;102001.72;10419388;28;20048;-73
2021/03/18 04:12:05;;;;;;;13.38;10.52;;;;;;;0.37;100.00;102012.41;10420451;28;20053;-73
2021/03/18 04:17:10;;;;;;;13.57;10.20;;;;;;;0.54;100.00;102038.66;10419353;28;20052;-73
2021/03/18 04:22:13;;;;;;;15.23;11.57;;;;;;;0.58;100.00;102025.78;10420529;28;20057;-72
2021/03/18 04:27:17;;;;;;;13.52;8.68;;;;;;;0.58;100.00;102022.31;10418269;28;20056;-73
2021/03/18 04:32:19;;;;;;;11.43;7.75;;;;;;;0.44;100.00;102009.06;10420448;28;20042;-73
2021/03/18 04:37:25;;;;;;;14.60;9.23;;;;;;;0.49;100.00;102014.38;10418667;28;20041;-73
2021/03/18 04:42:27;;;;;;;15.10;10.80;;;;;;;0.57;100.00;102017.97;10418389;28;20386;-73
2021/03/18 04:47:30;;;;;;;13.75;10.57;;;;;;;0.58;100.00;102020.59;10417752;28;20049;-73
2021/03/18 04:52:32;;;;;;;14.48;10.02;;;;;;;0.55;100.00;102014.47;10417964;28;20046;-73
2021/03/18 04:57:35;;;;;;;14.77;10.15;;;;;;;0.60;100.00;102024.09;10417466;28;20052;-73
2021/03/18 05:02:40;;;;;;;15.25;10.45;;;;;;;0.67;100.00;102025.09;10417835;28;20476;-73
2021/03/18 05:07:49;;;;;;;20.48;11.93;;;;;;;0.66;100.00;102015.56;10418302;28;20048;-73
2021/03/18 05:12:53;;;;;;;16.95;9.68;;;;;;;0.68;100.00;102021.63;10417822;28;20056;-73
2021/03/18 05:17:55;;;;;;;13.93;10.32;;;;;;;0.67;100.00;102006.94;10417717;28;20037;-73
2021/03/18 05:22:56;;;;;;;15.88;9.88;;;;;;;0.67;100.00;102009.53;10417316;28;20077;-73
2021/03/18 05:27:58;;;;;;;15.02;9.70;;;;;;;0.68;100.00;102000.88;10417367;28;20042;-73
2021/03/18 05:33:01;;;;;;;15.70;9.93;;;;;;;0.64;100.00;101989.59;10417101;28;20363;-73
2021/03/18 05:38:12;;;;;;;11.98;9.68;;;;;;;0.60;100.00;101992.97;10417348;28;20045;-73
2021/03/18 05:43:13;;;;;;;17.37;11.03;;;;;;;0.47;100.00;101988.41;10417438;28;20053;-73
2021/03/18 05:48:15;;;;;;;16.38;9.40;;;;;;;0.58;100.00;101994.69;10417222;28;20056;-73
2021/03/18 05:53:18;;;;;;;14.90;10.27;;;;;;;0.66;100.00;101995.69;10418127;28;20447;-73
2021/03/18 05:58:24;;;;;;;15.07;12.00;;;;;;;0.76;100.00;102001.91;10417000;28;20049;-73
2021/03/18 06:03:25;;;;;;;22.20;17.48;;;;;;;0.86;100.00;102000.34;10419440;28;20049;-72
2021/03/18 06:08:34;;;;;;;28.45;23.08;;;;;;;0.98;100.00;102001.44;10424791;28;20436;-73
2021/03/18 06:13:37;;;;;;;24.98;18.80;;;;;;;0.97;100.00;101980.66;10424853;28;20050;-73
2021/03/18 06:18:38;;;;;;;20.25;13.98;;;;;;;1.12;100.00;101979.19;10423187;28;20064;-73
2021/03/18 06:23:39;;;;;;;17.67;12.13;;;;;;;1.20;100.00;101983.63;10423521;28;20129;-73
2021/03/18 06:28:40;;;;;;;19.77;12.00;;;;;;;1.34;100.00;101975.19;10423410;28;20049;-73
2021/03/18 06:33:47;;;;;;;13.63;9.95;;;;;;;1.44;100.00;101968.44;10424716;28;20065;-73
2021/03/18 06:39:11;;;;;;;17.40;10.77;;;;;;;1.63;100.00;101973.03;10424113;28;20038;-73
2021/03/18 06:44:30;;;;;;;15.18;10.57;;;;;;;1.65;100.00;101947.97;10424315;28;20125;-72
2021/03/18 06:49:31;;;;;;;18.50;13.18;;;;;;;1.69;100.00;101933.28;10423480;28;20045;-73
2021/03/18 06:54:35;;;;;;;18.88;12.52;;;;;;;1.76;100.00;101938.56;10423653;28;20072;-73
2021/03/18 06:59:42;;;;;;;20.50;12.70;;;;;;;1.71;100.00;101926.38;10422168;28;20065;-73
2021/03/18 07:04:47;;;;;;;24.35;12.98;;;;;;;1.99;100.00;101936.28;10423570;28;20045;-73
2021/03/18 07:09:51;;;;;;;16.55;11.70;;;;;;;2.06;100.00;101937.22;10421709;28;20115;-73
2021/03/18 07:14:53;;;;;;;20.02;13.85;;;;;;;2.04;100.00;101915.53;10438106;28;20382;-73
2021/03/18 07:20:12;;;;;;;20.80;12.77;;;;;;;2.19;100.00;101931.31;10422110;28;20459;-73
2021/03/18 07:25:17;;;;;;;19.90;13.82;;;;;;;2.32;100.00;101927.13;10421423;28;20053;-73
2021/03/18 07:30:28;;;;;;;21.52;14.93;;;;;;;2.60;100.00;101926.53;10421489;28;20045;-72
2021/03/18 07:35:30;;;;;;;26.33;13.50;;;;;;;2.84;100.00;101931.09;10436710;28;20480;-73
2021/03/18 07:40:32;;;;;;;28.17;15.20;;;;;;;3.30;100.00;101937.53;10421912;28;20462;-73
2021/03/18 07:45:33;;;;;;;25.33;13.38;;;;;;;3.82;100.00;101943.91;10424308;28;20048;-73
2021/03/18 07:50:39;;;;;;;21.48;14.48;;;;;;;4.78;100.00;101970.28;10422971;28;20497;-73
2021/03/18 07:55:41;;;;;;;21.73;13.95;;;;;;;5.36;100.00;101965.09;10419757;28;20050;-73
2021/03/18 08:00:45;;;;;;;20.90;14.27;;;;;;;5.16;100.00;101910.25;10436898;28;20370;-73
2021/03/18 08:05:47;;;;;;;20.42;13.02;;;;;;;5.22;100.00;101876.25;10420686;28;20474;-73
2021/03/18 08:10:48;;;;;;;20.23;13.32;;;;;;;5.07;100.00;101860.63;10420031;28;20053;-72
2021/03/18 08:15:49;;;;;;;23.25;14.57;;;;;;;4.60;100.00;101813.69;10440426;28;20454;-72
2021/03/18 08:20:50;;;;;;;21.35;16.90;;;;;;;4.31;100.00;101798.88;10500313;28;20101;-72
2021/03/18 08:26:06;;;;;;;24.20;16.92;;;;;;;4.09;100.00;101784.97;10501216;28;20040;-72
2021/03/18 08:31:09;;;;;;;;;;;;;;;4.15;100.00;101812.78;10503536;28;20036;-72
2021/03/18 08:36:31;;;;;;;21.50;15.32;;;;;;;4.37;100.00;101827.56;10501067;28;19959;-72
2021/03/18 08:41:39;;;;;;;21.98;16.67;;;;;;;4.67;100.00;101846.75;10461767;28;20470;-72
2021/03/18 08:46:58;;;;;;;24.00;17.05;;;;;;;4.71;100.00;101828.44;10459699;28;20036;-72
2021/03/18 08:52:18;;;;;;;24.67;16.17;;;;;;;4.79;100.00;101818.88;10445391;28;20045;-73
2021/03/18 08:57:19;;;;;;;26.23;17.58;;;;;;;5.79;100.00;101890.91;10417894;28;20056;-73
2021/03/18 09:02:28;;;;;;;22.48;16.63;;;;;;;5.80;100.00;101868.22;10434303;28;20044;-72
2021/03/18 09:07:31;;;;;;;22.98;15.25;;;;;;;6.04;99.41;101852.44;10433459;28;20379;-72
2021/03/18 09:12:47;;;;;;;21.75;16.88;;;;;;;5.97;98.46;101837.66;10458850;28;20435;-72
2021/03/18 09:17:50;;;;;;;24.58;15.88;;;;;;;5.97;97.37;101843.78;10470240;28;20042;-72
2021/03/18 09:22:53;;;;;;;20.42;15.23;;;;;;;5.30;96.07;101776.09;10441454;28;20053;-72
2021/03/18 09:27:58;;;;;;;20.48;13.98;;;;;;;5.70;96.19;101826.44;10417200;28;20041;-73
2021/03/18 09:33:02;;;;;;;17.23;13.48;;;;;;;5.85;95.62;101814.19;10418432;28;20038;-73
2021/03/18 09:38:03;;;;;;;18.30;15.53;;;;;;;6.04;94.62;101819.31;10436871;28;20095;-72
2021/03/18 09:43:04;;;;;;;23.98;13.75;;;;;;;6.22;94.83;101814.84;10458328;28;20044;-72
2021/03/18 09:48:06;;;;;;;24.42;13.98;;;;;;;6.13;95.27;101802.69;10457648;28;20048;-72
2021/03/18 09:53:10;;;;;;;17.48;11.38;;;;;;;5.97;93.67;101774.91;10458165;28;20051;-72
2021/03/18 09:58:15;;;;;;;17.77;12.63;;;;;;;6.52;93.34;101829.47;10457757;28;20047;-73
2021/03/18 10:03:17;;;;;;;21.05;14.15;;;;;;;6.44;90.57;101795.50;10457772;28;20057;-72
2021/03/18 10:08:22;;;;;;;18.27;11.45;;;;;;;6.81;87.50;101809.97;10423139;28;20467;-73
2021/03/18 10:13:23;;;;;;;18.90;12.00;;;;;;;6.60;87.47;101770.03;10433258;28;20045;-73
2021/03/18 10:18:25;;;;;;;20.63;13.15;;;;;;;7.15;86.19;101807.88;10440288;28;20047;-73
2021/03/18 10:23:26;;;;;;;17.63;14.13;;;;;;;7.55;82.85;101805.66;10457128;28;20048;-73
2021/03/18 10:28:32;;;;;;;15.68;10.93;;;;;;;7.38;80.20;101756.94;10441808;28;20049;-73
2021/03/18 10:33:35;;;;;;;13.27;9.20;;;;;;;7.42;80.99;101756.03;10442526;28;20052;-73
2021/03/18 10:38:40;;;;;;;13.98;11.07;;;;;;;8.07;79.09;101793.59;10451973;28;20360;-73
2021/03/18 10:43:46;;;;;;;14.70;11.25;;;;;;;7.78;78.12;101749.41;10415850;28;20057;-73
2021/03/18 10:48:49;;;;;;;14.57;10.18;;;;;;;7.73;78.45;101733.72;10415188;28;20045;-72
2021/03/18 10:53:52;;;;;;;11.82;9.85;;;;;;;7.17;78.77;101682.97;10423669;28;20370;-72
2021/03/18 10:58:55;;;;;;;12.05;9.00;;;;;;;6.94;78.58;101679.75;10422907;28;20116;-73
2021/03/18 11:04:06;;;;;;;15.90;10.35;;;;;;;7.17;78.98;101695.19;10438309;28;20041;-73
2021/03/18 11:09:12;;;;;;;19.52;14.00;;;;;;;7.18;79.77;101703.03;10422320;28;20068;-72
2021/03/18 11:14:14;;;;;;;18.83;14.95;;;;;;;6.81;79.22;101660.69;10439028;28;20048;-72
2021/03/18 11:19:20;;;;;;;21.50;16.60;;;;;;;7.22;79.45;101711.72;10422319;28;20034;-72
2021/03/18 11:24:22;;;;;;;21.85;18.90;;;;;;;7.98;77.60;101732.47;10422641;28;20060;-73
2021/03/18 11:29:30;;;;;;;18.25;14.98;;;;;;;7.95;75.22;101679.19;10437566;28;20041;-72
2021/03/18 11:34:34;;;;;;;19.63;15.10;;;;;;;8.31;75.73;101690.84;10420821;28;20060;-72
2021/03/18 11:39:37;;;;;;;16.60;14.80;;;;;;;8.16;74.93;101676.19;10437366;28;20450;-73
2021/03/18 11:44:38;;;;;;;16.98;13.15;;;;;;;9.05;72.61;101704.31;10437450;28;20124;-73
2021/03/18 11:49:42;;;;;;;15.00;9.07;;;;;;;9.64;71.45;101691.63;10420830;28;20052;-73
2021/03/18 11:54:43;;;;;;;7.83;6.90;;;;;;;9.93;69.65;101704.13;10421458;28;20191;-72
2021/03/18 11:59:44;;;;;;;8.52;6.20;;;;;;;9.45;68.57;101623.69;10421316;28;20360;-73
2021/03/18 12:04:46;;;;;;;7.15;6.30;;;;;;;9.03;71.00;101609.75;10420172;28;20080;-72
2021/03/18 12:09:47;;;;;;;8.05;6.47;;;;;;;8.57;73.04;101616.84;10435683;28;20108;-73
2021/03/18 12:14:48;;;;;;;9.25;6.38;;;;;;;8.47;72.04;101589.03;10420846;28;20037;-72
2021/03/18 12:19:50;;;;;;;9.75;6.40;;;;;;;8.41;72.65;101579.50;10436279;28;20038;-73
2021/03/18 12:24:51;;;;;;;12.52;6.53;;;;;;;8.38;74.78;101590.94;10419963;28;20045;-73
2021/03/18 12:29:52;;;;;;;11.52;6.78;;;;;;;8.56;73.23;101579.19;10422729;28;20540;-73
2021/03/18 12:34:54;;;;;;;9.82;6.55;;;;;;;7.98;73.87;101542.69;10428605;28;20049;-73
2021/03/18 12:39:55;;;;;;;7.85;6.65;;;;;;;7.70;74.77;101500.34;10421798;28;20048;-73
2021/03/18 12:44:56;;;;;;;9.80;6.00;;;;;;;7.58;76.76;101508.44;10460391;28;20328;-73
2021/03/18 12:49:58;;;;;;;8.50;6.50;;;;;;;7.51;78.53;101523.41;10458790;28;20056;-73
2021/03/18 12:54:59;;;;;;;9.65;5.72;;;;;;;7.70;78.40;101517.88;10459772;28;20055;-73
2021/03/18 13:00:04;;;;;;;8.52;5.93;;;;;;;8.04;76.70;101532.06;10459163;28;20052;-73
2021/03/18 13:05:06;;;;;;;8.85;5.10;;;;;;;7.85;75.57;101500.09;10460271;28;20045;-73
2021/03/18 13:10:08;;;;;;;6.78;4.80;;;;;;;7.44;78.08;101482.47;10435828;28;20048;-72
2021/03/18 13:15:11;;;;;;;7.28;5.10;;;;;;;7.50;77.37;101489.34;10428461;28;20073;-72
2021/03/18 13:20:15;;;;;;;8.93;4.97;;;;;;;7.17;77.40;101444.50;10444324;28;20116;-72
2021/03/18 13:25:18;;;;;;;7.93;4.65;;;;;;;7.39;80.49;101458.06;10457727;28;20355;-72
2021/03/18 13:30:22;;;;;;;9.27;4.40;;;;;;;7.58;80.03;101472.59;10458066;28;20057;-73
2021/03/18 13:35:24;;;;;;;10.80;6.13;;;;;;;7.65;79.72;101457.59;10441695;28;20406;-73
2021/03/18 13:40:29;;;;;;;10.60;5.77;;;;;;;7.47;78.20;101443.06;10441229;28;20099;-72
2021/03/18 13:45:39;;;;;;;11.40;5.28;;;;;;;7.21;78.00;101404.22;10457441;28;20052;-73
2021/03/18 13:50:46;;;;;;;9.18;5.60;;;;;;;7.27;78.19;101426.00;10433219;28;20087;-72
2021/03/18 13:55:48;;;;;;;7.65;4.57;;;;;;;7.02;79.50;101389.72;10416138;28;20077;-73
2021/03/18 14:00:50;;;;;;;8.55;4.53;;;;;;;6.94;81.17;101402.09;10417490;28;20049;-73
2021/03/18 14:05:51;;;;;;;8.45;5.00;;;;;;;6.75;82.59;101382.31;10416134;28;20463;-73
2021/03/18 14:10:52;;;;;;;8.02;5.68;;;;;;;6.70;82.43;101384.13;10421021;28;20410;-73
2021/03/18 14:15:54;;;;;;;7.32;4.85;;;;;;;6.56;83.93;101383.50;10473042;28;20051;-72
2021/03/18 14:20:55;;;;;;;7.50;4.88;;;;;;;6.92;84.11;101430.06;10457658;28;20080;-72
2021/03/18 14:25:56;;;;;;;9.32;4.72;;;;;;;6.83;84.19;101404.88;10459773;28;20053;-72
2021/03/18 14:30:58;;;;;;;10.13;5.40;;;;;;;7.16;83.50;101434.03;10488897;28;20040;-72
2021/03/18 14:36:01;;;;;;;9.50;5.20;;;;;;;7.19;83.12;101426.13;10457197;28;20041;-72
2021/03/18 14:41:02;;;;;;;11.45;5.38;;;;;;;7.19;82.80;101419.13;10439884;28;20039;-73
2021/03/18 14:46:04;;;;;;;9.23;5.75;;;;;;;6.86;84.16;101391.72;10424025;28;20045;-72
2021/03/18 14:51:05;;;;;;;8.02;5.90;;;;;;;6.85;85.04;101386.53;10422851;28;20041;-73
2021/03/18 14:56:07;;;;;;;10.70;5.63;;;;;;;6.60;85.78;101351.16;10423473;28;20427;-73
2021/03/18 15:01:29;;;;;;;11.60;6.55;;;;;;;6.24;91.07;101335.13;10423361;28;20470;-73
2021/03/18 15:06:30;;;;;;;9.88;5.60;;;;;;;6.09;95.10;101336.22;10421811;28;20049;-72
2021/03/18 15:11:35;;;;;;;10.27;5.88;;;;;;;6.07;97.37;101355.44;10423298;28;20470;-73
2021/03/18 15:16:37;;;;;;;10.85;5.93;;;;;;;6.03;98.97;101359.81;10421970;28;20076;-72
2021/03/18 15:21:39;;;;;;;9.52;7.22;;;;;;;6.61;99.84;101411.31;10422727;28;20052;-72
2021/03/18 15:26:41;;;;;;;11.32;7.22;;;;;;;6.71;98.27;101407.69;10421830;28;20049;-73
2021/03/18 15:31:43;;;;;;;12.10;6.55;;;;;;;6.82;96.11;101408.38;10437889;28;20228;-73
2021/03/18 15:36:44;;;;;;;9.20;5.80;;;;;;;6.82;94.07;101394.41;10421205;28;20045;-73
2021/03/18 15:41:45;;;;;;;10.23;6.70;;;;;;;7.01;92.56;101400.22;10443155;28;20057;-73
2021/03/18 15:46:46;;;;;;;12.75;6.90;;;;;;;7.02;90.66;101367.91;10403848;28;20049;-73
2021/03/18 15:51:48;;;;;;;12.20;5.97;;;;;;;6.75;90.60;101332.56;10454744;28;20052;-72
2021/03/18 15:56:49;;;;;;;13.35;7.35;;;;;;;7.06;91.65;101380.91;10453065;28;20046;-73
2021/03/18 16:01:51;;;;;;;11.60;6.72;;;;;;;6.86;91.56;101330.66;10421012;28;20050;-73
2021/03/18 16:07:12;;;;;;;13.93;9.35;;;;;;;6.68;90.10;101313.50;10436127;28;20128;-73
2021/03/18 16:12:14;;;;;;;11.68;6.97;;;;;;;6.53;90.12;101294.56;10441181;28;20060;-72
2021/03/18 16:17:15;;;;;;;17.20;7.68;;;;;;;6.28;93.05;101267.88;10435378;28;20047;-73
2021/03/18 16:22:18;;;;;;;15.75;9.00;;;;;;;6.21;94.66;101274.97;10435758;28;20132;-73
2021/03/18 16:27:20;;;;;;;14.73;10.15;;;;;;;6.32;94.14;101290.53;10401935;28;20042;-73
2021/03/18 16:32:21;;;;;;;12.73;8.38;;;;;;;6.32;94.11;101288.78;10424659;28;20041;-73
2021/03/18 16:37:22;;;;;;;13.63;8.85;;;;;;;6.28;93.37;101274.00;10402202;28;20042;-72
2021/03/18 16:42:24;;;;;;;16.23;7.90;;;;;;;6.32;93.41;101273.06;10419498;28;20053;-73
2021/03/18 16:47:33;;;;;;;13.05;8.27;;;;;;;6.12;93.94;101238.50;10418628;28;20991;-72
2021/03/18 16:52:35;;;;;;;12.75;8.65;;;;;;;6.01;95.18;101243.91;10419348;28;20104;-74
2021/03/18 16:57:40;;;;;;;19.30;15.13;;;;;;;6.62;97.39;101299.59;10418675;28;20047;-72
2021/03/18 17:02:42;;;;;;;20.90;18.02;;;;;;;6.02;96.18;101248.25;10418278;28;20143;-72
2021/03/18 17:07:45;;;;;;;15.27;11.40;;;;;;;5.98;97.72;101248.31;10427592;28;20060;-72
2021/03/18 17:12:47;;;;;;;17.63;10.98;;;;;;;5.76;98.87;101228.59;10473526;28;20044;-71
2021/03/18 17:17:52;;;;;;;17.23;11.82;;;;;;;5.66;99.76;101236.56;10455284;28;20033;-72
2021/03/18 17:22:53;;;;;;;14.20;12.00;;;;;;;5.56;100.00;101221.88;10459685;28;20114;-72
2021/03/18 17:27:55;;;;;;;16.60;12.05;;;;;;;5.45;100.00;101230.75;10457942;28;20032;-72
2021/03/18 17:32:57;;;;;;;18.30;10.98;;;;;;;5.52;100.00;101246.34;10459188;28;20051;-72
2021/03/18 17:37:58;;;;;;;14.43;8.77;;;;;;;5.50;100.00;101239.41;10454005;28;20033;-72
2021/03/18 17:43:00;;;;;;;16.00;9.45;;;;;;;5.32;100.00;101214.38;10420935;28;20037;-73
2021/03/18 17:48:17;;;;;;;15.68;8.90;;;;;;;5.36;100.00;101233.50;10445019;28;20045;-73
2021/03/18 17:53:21;;;;;;;18.63;8.75;;;;;;;5.33;100.00;101237.88;10428425;28;20057;-73
2021/03/18 17:58:25;;;;;;;21.10;11.77;;;;;;;5.25;100.00;101231.00;10432206;28;20045;-73
2021/03/18 18:03:27;;;;;;;21.58;12.07;;;;;;;5.25;100.00;101238.84;10465961;28;20037;-73
2021/03/18 18:08:29;;;;;;;16.42;10.55;;;;;;;5.24;100.00;101231.88;10440933;28;20144;-72
2021/03/18 18:13:30;;;;;;;21.20;13.93;;;;;;;5.20;100.00;101241.50;10455275;28;20123;-73
2021/03/18 18:18:35;;;;;;;16.92;11.43;;;;;;;5.11;100.00;101233.78;10440985;28;20056;-73
2021/03/18 18:23:37;;;;;;;23.10;13.32;;;;;;;5.10;100.00;101233.81;10423853;28;20041;-73
2021/03/18 18:28:38;;;;;;;18.30;10.55;;;;;;;5.10;100.00;101236.44;10423876;28;20427;-73
2021/03/18 18:33:40;;;;;;;16.88;10.15;;;;;;;5.09;100.00;101235.56;10424443;28;20046;-73
2021/03/18 18:38:41;;;;;;;18.90;10.30;;;;;;;5.11;100.00;101239.00;10422160;28;20049;-73
2021/03/18 18:43:42;;;;;;;22.05;11.10;;;;;;;5.14;100.00;101249.41;10423954;28;20052;-73
2021/03/18 18:48:54;;;;;;;19.95;11.18;;;;;;;5.14;100.00;101241.59;10422068;28;20144;-73
2021/03/18 18:53:56;;;;;;;19.48;12.15;;;;;;;5.01;100.00;101240.00;10422617;28;20045;-73
2021/03/18 18:58:57;;;;;;;30.95;18.38;;;;;;;4.76;100.00;101226.34;10421672;28;20080;-72
2021/03/18 19:03:59;;;;;;;29.30;15.48;;;;;;;4.68;100.00;101230.78;10422943;28;20088;-72
2021/03/18 19:09:01;;;;;;;64.85;47.28;;;;;;;4.72;100.00;101239.44;10422716;28;20044;-73
2021/03/18 19:14:04;;;;;;;27.55;18.60;;;;;;;4.63;100.00;101229.97;10420956;28;20057;-72
2021/03/18 19:19:19;;;;;;;25.58;16.05;;;;;;;4.55;100.00;101229.16;10422511;28;20045;-73
2021/03/18 19:24:21;;;;;;;26.25;18.13;;;;;;;4.69;100.00;101255.13;10421331;28;20064;-73
2021/03/18 19:29:22;;;;;;;29.83;18.10;;;;;;;4.72;100.00;101255.97;10420876;28;20057;-73
2021/03/18 19:34:23;;;;;;;28.17;19.55;;;;;;;4.71;100.00;101256.84;10421135;28;20060;-73
2021/03/18 19:39:25;;;;;;;30.38;19.50;;;;;;;4.63;100.00;101249.97;10421102;28;20041;-72
2021/03/18 19:44:26;;;;;;;32.05;19.15;;;;;;;4.65;100.00;101243.88;10420731;28;20041;-72
2021/03/18 19:49:37;;;;;;;28.33;17.55;;;;;;;4.69;100.00;101242.06;10420837;28;20518;-73
2021/03/18 19:54:38;;;;;;;30.67;18.90;;;;;;;4.61;100.00;101233.44;10421378;28;20041;-72
2021/03/18 19:59:39;;;;;;;30.77;18.20;;;;;;;4.58;100.00;101231.75;10420932;28;20099;-72
2021/03/18 20:04:40;;;;;;;29.58;17.63;;;;;;;4.56;100.00;101230.91;10420779;28;20053;-73
2021/03/18 20:09:42;;;;;;;26.55;17.17;;;;;;;4.61;100.00;101236.06;10418917;28;20459;-73
2021/03/18 20:14:43;;;;;;;33.28;23.17;;;;;;;4.57;100.00;101230.03;10420055;28;20490;-72
2021/03/18 20:20:00;;;;;;;62.63;37.70;;;;;;;4.60;100.00;101231.75;10419410;28;20045;-72
2021/03/18 20:25:04;;;;;;;43.38;26.52;;;;;;;4.59;100.00;101249.16;10419035;28;20132;-72
2021/03/18 20:30:11;;;;;;;34.72;19.50;;;;;;;4.51;100.00;101251.84;10418246;28;20080;-72
2021/03/18 20:35:12;;;;;;;30.00;18.75;;;;;;;4.39;100.00;101256.28;10420901;28;20053;-72
2021/03/18 20:40:16;;;;;;;18.30;11.35;;;;;;;4.26;100.00;101254.66;10427109;28;20046;-73
2021/03/18 20:45:18;;;;;;;15.57;7.57;;;;;;;4.27;100.00;101262.44;10434709;28;20049;-72
2021/03/18 20:50:28;;;;;;;10.65;6.68;;;;;;;4.12;100.00;101258.22;10419497;28;20355;-72
2021/03/18 20:55:32;;;;;;;13.57;6.72;;;;;;;4.18;100.00;101266.00;10418537;28;20048;-72
2021/03/18 21:00:36;;;;;;;11.83;8.60;;;;;;;4.15;100.00;101266.03;10417666;28;20060;-73
2021/03/18 21:05:41;;;;;;;17.92;10.82;;;;;;;4.28;100.00;101285.03;10418110;28;20055;-72
2021/03/18 21:10:43;;;;;;;15.07;10.07;;;;;;;4.27;100.00;101291.13;10418516;28;20045;-72
2021/03/18 21:15:44;;;;;;;14.18;9.30;;;;;;;4.16;100.00;101299.06;10417471;28;20494;-72
2021/03/18 21:20:47;;;;;;;20.55;10.32;;;;;;;4.22;100.00;101310.31;10418459;28;20064;-72
2021/03/18 21:25:50;;;;;;;17.95;9.18;;;;;;;4.17;100.00;101303.41;10414998;28;20051;-72
2021/03/18 21:30:51;;;;;;;14.20;8.40;;;;;;;4.11;100.00;101306.03;10417522;28;20037;-72
2021/03/18 21:35:52;;;;;;;13.13;7.50;;;;;;;4.13;100.00;101317.31;10417886;28;20072;-72
2021/03/18 21:40:54;;;;;;;15.23;7.03;;;;;;;4.03;100.00;101318.25;10417611;28;20477;-72
2021/03/18 21:45:56;;;;;;;10.20;5.72;;;;;;;4.03;100.00;101326.06;10417001;28;20041;-71
2021/03/18 21:51:13;;;;;;;15.13;6.22;;;;;;;4.12;100.00;101338.19;10417505;28;20064;-72
2021/03/18 21:56:14;;;;;;;9.07;6.10;;;;;;;4.09;100.00;101346.91;10417804;28;20048;-72
2021/03/18 22:01:17;;;;;;;9.98;7.57;;;;;;;4.04;100.00;101350.41;10417936;28;20503;-72
2021/03/18 22:06:18;;;;;;;14.68;10.07;;;;;;;4.10;100.00;101358.22;10416258;28;20088;-72
2021/03/18 22:11:19;;;;;;;14.48;10.77;;;;;;;4.06;100.00;101357.34;10416251;28;20053;-72
2021/03/18 22:16:21;;;;;;;19.00;13.60;;;;;;;3.97;100.00;101354.78;10427509;28;20454;-72
2021/03/18 22:21:28;;;;;;;15.63;12.38;;;;;;;4.01;100.00;101350.44;10417183;28;20042;-72
2021/03/18 22:26:30;;;;;;;15.35;13.02;;;;;;;4.05;100.00;101358.22;10431954;28;20383;-72
2021/03/18 22:31:32;;;;;;;18.23;13.25;;;;;;;3.98;100.00;101347.84;10448573;28;20045;-72
2021/03/18 22:36:34;;;;;;;14.38;12.43;;;;;;;3.97;100.00;101335.69;10415301;28;20057;-72
2021/03/18 22:41:37;;;;;;;14.30;11.68;;;;;;;3.97;100.00;101322.63;10416737;28;20052;-72
2021/03/18 22:46:38;;;;;;;44.92;34.72;;;;;;;3.85;100.00;101304.47;10419387;28;20049;-72
2021/03/18 22:51:51;;;;;;;9.48;7.35;;;;;;;3.90;100.00;101287.06;10425368;28;20116;-72
2021/03/18 22:56:53;;;;;;;33.05;28.80;;;;;;;3.79;100.00;101254.09;10463690;28;20047;-72
2021/03/18 23:01:55;;;;;;;8.68;6.43;;;;;;;3.75;100.00;101231.56;10448133;28;20067;-72